sensor_id;sensor_type;location;lat;lon;timestamp;P1;durP1;ratioP1;P2;durP2;ratioP2
41293;SDS011;27037;52.010;4.446;2023-02-28T00:00:44;7.47;;;3.40;;
41293;SDS011;27037;52.010;4.446;2023-02-28T00:03:09;10.00;;;3.42;;
41293;SDS011;27037;52.010;4.446;2023-02-28T00:05:35;6.03;;;3.13;;
41293;SDS011;27037;52.010;4.446;2023-02-28T00:08:00;7.20;;;3.13;;
41293;SDS011;27037;52.010;4.446;2023-02-28T00:10:27;7.57;;;3.67;;
41293;SDS011;27037;52.010;4.446;2023-02-28T00:12:55;7.32;;;3.45;;
41293;SDS011;27037;52.010;4.446;2023-02-28T00:15:23;7.72;;;3.58;;
41293;SDS011;27037;52.010;4.446;2023-02-28T00:17:49;7.03;;;3.13;;
41293;SDS011;27037;52.010;4.446;2023-02-28T00:20:15;8.90;;;3.63;;
41293;SDS011;27037;52.010;4.446;2023-02-28T00:22:42;7.25;;;3.58;;
41293;SDS011;27037;52.010;4.446;2023-02-28T00:25:10;7.68;;;3.33;;
41293;SDS011;27037;52.010;4.446;2023-02-28T00:27:38;5.40;;;3.20;;
41293;SDS011;27037;52.010;4.446;2023-02-28T00:30:04;8.00;;;3.55;;
41293;SDS011;27037;52.010;4.446;2023-02-28T00:32:33;7.72;;;3.30;;
41293;SDS011;27037;52.010;4.446;2023-02-28T00:34:59;6.35;;;3.20;;
41293;SDS011;27037;52.010;4.446;2023-02-28T00:37:25;9.57;;;3.35;;
41293;SDS011;27037;52.010;4.446;2023-02-28T00:39:51;9.27;;;3.30;;
41293;SDS011;27037;52.010;4.446;2023-02-28T00:42:17;8.27;;;3.78;;
41293;SDS011;27037;52.010;4.446;2023-02-28T00:44:42;7.40;;;3.40;;
41293;SDS011;27037;52.010;4.446;2023-02-28T00:47:08;6.57;;;3.60;;
41293;SDS011;27037;52.010;4.446;2023-02-28T00:49:33;9.20;;;3.60;;
41293;SDS011;27037;52.010;4.446;2023-02-28T00:51:59;9.57;;;3.38;;
41293;SDS011;27037;52.010;4.446;2023-02-28T00:54:25;5.45;;;2.95;;
41293;SDS011;27037;52.010;4.446;2023-02-28T00:56:51;7.53;;;3.35;;
41293;SDS011;27037;52.010;4.446;2023-02-28T00:59:17;9.75;;;3.40;;
41293;SDS011;27037;52.010;4.446;2023-02-28T01:01:44;8.80;;;3.35;;
41293;SDS011;27037;52.010;4.446;2023-02-28T01:04:10;12.00;;;3.25;;
41293;SDS011;27037;52.010;4.446;2023-02-28T01:06:37;9.23;;;3.10;;
41293;SDS011;27037;52.010;4.446;2023-02-28T01:09:03;9.35;;;3.80;;
41293;SDS011;27037;52.010;4.446;2023-02-28T01:11:30;8.38;;;3.55;;
41293;SDS011;27037;52.010;4.446;2023-02-28T01:13:56;7.88;;;3.33;;
41293;SDS011;27037;52.010;4.446;2023-02-28T01:16:21;8.18;;;3.40;;
41293;SDS011;27037;52.010;4.446;2023-02-28T01:18:47;5.97;;;2.72;;
41293;SDS011;27037;52.010;4.446;2023-02-28T01:21:14;8.50;;;3.20;;
41293;SDS011;27037;52.010;4.446;2023-02-28T01:23:41;7.72;;;3.65;;
41293;SDS011;27037;52.010;4.446;2023-02-28T01:26:07;6.00;;;3.25;;
41293;SDS011;27037;52.010;4.446;2023-02-28T01:28:34;6.03;;;3.15;;
41293;SDS011;27037;52.010;4.446;2023-02-28T01:31:00;9.10;;;3.22;;
41293;SDS011;27037;52.010;4.446;2023-02-28T01:33:26;8.95;;;3.80;;
41293;SDS011;27037;52.010;4.446;2023-02-28T01:36:00;7.20;;;3.28;;
41293;SDS011;27037;52.010;4.446;2023-02-28T01:38:27;11.32;;;3.75;;
41293;SDS011;27037;52.010;4.446;2023-02-28T01:40:52;9.23;;;3.45;;
41293;SDS011;27037;52.010;4.446;2023-02-28T01:43:20;6.15;;;3.30;;
41293;SDS011;27037;52.010;4.446;2023-02-28T01:45:46;7.78;;;3.33;;
41293;SDS011;27037;52.010;4.446;2023-02-28T01:48:12;8.90;;;3.42;;
41293;SDS011;27037;52.010;4.446;2023-02-28T01:50:39;6.70;;;3.28;;
41293;SDS011;27037;52.010;4.446;2023-02-28T01:53:10;7.63;;;3.55;;
41293;SDS011;27037;52.010;4.446;2023-02-28T01:55:40;4.70;;;3.22;;
41293;SDS011;27037;52.010;4.446;2023-02-28T01:58:11;9.63;;;3.88;;
41293;SDS011;27037;52.010;4.446;2023-02-28T02:00:37;9.13;;;4.05;;
41293;SDS011;27037;52.010;4.446;2023-02-28T02:03:06;8.68;;;3.95;;
41293;SDS011;27037;52.010;4.446;2023-02-28T02:05:36;8.73;;;4.10;;
41293;SDS011;27037;52.010;4.446;2023-02-28T02:08:04;11.30;;;4.15;;
41293;SDS011;27037;52.010;4.446;2023-02-28T02:10:38;6.47;;;4.20;;
41293;SDS011;27037;52.010;4.446;2023-02-28T02:18:43;8.75;;;4.40;;
41293;SDS011;27037;52.010;4.446;2023-02-28T02:23:47;9.52;;;4.47;;
41293;SDS011;27037;52.010;4.446;2023-02-28T02:36:38;9.07;;;4.45;;
41293;SDS011;27037;52.010;4.446;2023-02-28T02:38:46;12.13;;;5.60;;
41293;SDS011;27037;52.010;4.446;2023-02-28T02:41:26;11.55;;;4.85;;
41293;SDS011;27037;52.010;4.446;2023-02-28T02:44:07;8.57;;;4.82;;
41293;SDS011;27037;52.010;4.446;2023-02-28T02:46:43;10.10;;;4.35;;
41293;SDS011;27037;52.010;4.446;2023-02-28T02:49:12;12.85;;;5.60;;
41293;SDS011;27037;52.010;4.446;2023-02-28T02:51:46;10.43;;;4.60;;
41293;SDS011;27037;52.010;4.446;2023-02-28T02:54:18;11.18;;;5.28;;
41293;SDS011;27037;52.010;4.446;2023-02-28T02:56:48;12.30;;;4.70;;
41293;SDS011;27037;52.010;4.446;2023-02-28T02:59:17;8.93;;;4.63;;
41293;SDS011;27037;52.010;4.446;2023-02-28T03:01:46;11.80;;;5.00;;
41293;SDS011;27037;52.010;4.446;2023-02-28T03:04:18;7.53;;;4.72;;
41293;SDS011;27037;52.010;4.446;2023-02-28T03:06:46;11.77;;;4.57;;
41293;SDS011;27037;52.010;4.446;2023-02-28T03:09:12;10.55;;;5.07;;
41293;SDS011;27037;52.010;4.446;2023-02-28T03:11:38;8.15;;;4.60;;
41293;SDS011;27037;52.010;4.446;2023-02-28T03:25:17;10.90;;;5.15;;
41293;SDS011;27037;52.010;4.446;2023-02-28T03:33:38;10.88;;;5.40;;
41293;SDS011;27037;52.010;4.446;2023-02-28T03:36:20;9.57;;;4.88;;
41293;SDS011;27037;52.010;4.446;2023-02-28T03:39:02;14.82;;;5.85;;
41293;SDS011;27037;52.010;4.446;2023-02-28T03:41:32;9.70;;;5.50;;
41293;SDS011;27037;52.010;4.446;2023-02-28T03:44:08;12.85;;;6.15;;
41293;SDS011;27037;52.010;4.446;2023-02-28T03:46:43;10.02;;;6.07;;
41293;SDS011;27037;52.010;4.446;2023-02-28T03:49:18;13.90;;;5.68;;
41293;SDS011;27037;52.010;4.446;2023-02-28T03:51:47;9.23;;;5.53;;
41293;SDS011;27037;52.010;4.446;2023-02-28T03:54:19;14.75;;;5.88;;
41293;SDS011;27037;52.010;4.446;2023-02-28T03:56:54;12.88;;;6.80;;
41293;SDS011;27037;52.010;4.446;2023-02-28T03:59:28;15.73;;;6.75;;
41293;SDS011;27037;52.010;4.446;2023-02-28T04:01:57;14.15;;;7.22;;
41293;SDS011;27037;52.010;4.446;2023-02-28T04:04:23;11.20;;;6.78;;
41293;SDS011;27037;52.010;4.446;2023-02-28T04:06:52;12.70;;;6.60;;
41293;SDS011;27037;52.010;4.446;2023-02-28T04:09:26;11.18;;;6.63;;
41293;SDS011;27037;52.010;4.446;2023-02-28T04:11:53;12.48;;;6.60;;
41293;SDS011;27037;52.010;4.446;2023-02-28T04:14:20;13.05;;;7.03;;
41293;SDS011;27037;52.010;4.446;2023-02-28T04:16:47;12.85;;;6.78;;
41293;SDS011;27037;52.010;4.446;2023-02-28T04:19:13;11.60;;;7.15;;
41293;SDS011;27037;52.010;4.446;2023-02-28T04:22:00;13.55;;;6.88;;
41293;SDS011;27037;52.010;4.446;2023-02-28T04:24:26;13.00;;;6.97;;
41293;SDS011;27037;52.010;4.446;2023-02-28T04:26:54;11.80;;;6.90;;
41293;SDS011;27037;52.010;4.446;2023-02-28T04:29:22;13.57;;;7.40;;
41293;SDS011;27037;52.010;4.446;2023-02-28T04:31:49;15.93;;;8.13;;
41293;SDS011;27037;52.010;4.446;2023-02-28T04:34:15;15.30;;;7.50;;
41293;SDS011;27037;52.010;4.446;2023-02-28T04:36:41;13.38;;;7.30;;
41293;SDS011;27037;52.010;4.446;2023-02-28T04:39:07;15.50;;;8.18;;
41293;SDS011;27037;52.010;4.446;2023-02-28T04:41:34;14.85;;;7.72;;
41293;SDS011;27037;52.010;4.446;2023-02-28T04:44:00;16.58;;;7.40;;
41293;SDS011;27037;52.010;4.446;2023-02-28T04:46:26;14.70;;;7.60;;
41293;SDS011;27037;52.010;4.446;2023-02-28T04:48:51;13.68;;;7.18;;
41293;SDS011;27037;52.010;4.446;2023-02-28T04:51:19;14.55;;;7.63;;
41293;SDS011;27037;52.010;4.446;2023-02-28T04:53:45;12.60;;;7.65;;
41293;SDS011;27037;52.010;4.446;2023-02-28T04:56:11;14.75;;;8.60;;
41293;SDS011;27037;52.010;4.446;2023-02-28T04:58:39;17.63;;;10.30;;
41293;SDS011;27037;52.010;4.446;2023-02-28T05:01:16;21.30;;;10.80;;
41293;SDS011;27037;52.010;4.446;2023-02-28T05:03:42;26.02;;;12.02;;
41293;SDS011;27037;52.010;4.446;2023-02-28T05:06:08;22.08;;;10.80;;
41293;SDS011;27037;52.010;4.446;2023-02-28T05:08:35;20.63;;;11.27;;
41293;SDS011;27037;52.010;4.446;2023-02-28T05:11:01;20.58;;;10.30;;
41293;SDS011;27037;52.010;4.446;2023-02-28T05:13:28;19.38;;;9.15;;
41293;SDS011;27037;52.010;4.446;2023-02-28T05:15:54;16.65;;;9.23;;
41293;SDS011;27037;52.010;4.446;2023-02-28T05:18:20;20.42;;;8.70;;
41293;SDS011;27037;52.010;4.446;2023-02-28T05:20:45;20.40;;;8.27;;
41293;SDS011;27037;52.010;4.446;2023-02-28T05:23:12;14.07;;;8.00;;
41293;SDS011;27037;52.010;4.446;2023-02-28T05:25:38;14.38;;;7.90;;
41293;SDS011;27037;52.010;4.446;2023-02-28T05:28:05;14.40;;;7.53;;
41293;SDS011;27037;52.010;4.446;2023-02-28T05:30:31;13.52;;;7.82;;
41293;SDS011;27037;52.010;4.446;2023-02-28T05:32:57;13.68;;;7.50;;
41293;SDS011;27037;52.010;4.446;2023-02-28T05:35:23;16.75;;;7.15;;
41293;SDS011;27037;52.010;4.446;2023-02-28T05:37:50;14.80;;;7.78;;
41293;SDS011;27037;52.010;4.446;2023-02-28T05:40:16;13.75;;;7.47;;
41293;SDS011;27037;52.010;4.446;2023-02-28T05:42:42;13.63;;;7.80;;
41293;SDS011;27037;52.010;4.446;2023-02-28T05:45:08;11.25;;;7.65;;
41293;SDS011;27037;52.010;4.446;2023-02-28T05:47:34;13.98;;;7.75;;
41293;SDS011;27037;52.010;4.446;2023-02-28T05:50:00;15.55;;;8.15;;
41293;SDS011;27037;52.010;4.446;2023-02-28T05:52:26;13.10;;;7.90;;
41293;SDS011;27037;52.010;4.446;2023-02-28T05:54:52;17.65;;;8.60;;
41293;SDS011;27037;52.010;4.446;2023-02-28T05:57:18;16.65;;;9.15;;
41293;SDS011;27037;52.010;4.446;2023-02-28T05:59:44;13.75;;;8.75;;
41293;SDS011;27037;52.010;4.446;2023-02-28T06:02:10;16.17;;;8.23;;
41293;SDS011;27037;52.010;4.446;2023-02-28T06:04:39;16.15;;;8.63;;
41293;SDS011;27037;52.010;4.446;2023-02-28T06:07:05;15.88;;;8.80;;
41293;SDS011;27037;52.010;4.446;2023-02-28T06:09:32;14.65;;;7.95;;
41293;SDS011;27037;52.010;4.446;2023-02-28T06:12:01;14.43;;;7.95;;
41293;SDS011;27037;52.010;4.446;2023-02-28T06:14:30;16.40;;;9.13;;
41293;SDS011;27037;52.010;4.446;2023-02-28T06:16:57;23.45;;;9.80;;
41293;SDS011;27037;52.010;4.446;2023-02-28T06:19:24;13.15;;;7.88;;
41293;SDS011;27037;52.010;4.446;2023-02-28T06:21:54;17.50;;;9.07;;
41293;SDS011;27037;52.010;4.446;2023-02-28T06:24:24;17.20;;;8.18;;
41293;SDS011;27037;52.010;4.446;2023-02-28T06:26:52;17.40;;;8.85;;
41293;SDS011;27037;52.010;4.446;2023-02-28T06:29:18;15.95;;;9.20;;
41293;SDS011;27037;52.010;4.446;2023-02-28T06:31:44;16.05;;;8.05;;
41293;SDS011;27037;52.010;4.446;2023-02-28T06:34:11;11.65;;;7.85;;
41293;SDS011;27037;52.010;4.446;2023-02-28T06:36:41;13.73;;;7.38;;
41293;SDS011;27037;52.010;4.446;2023-02-28T06:39:07;11.15;;;6.90;;
41293;SDS011;27037;52.010;4.446;2023-02-28T06:41:34;13.55;;;6.60;;
41293;SDS011;27037;52.010;4.446;2023-02-28T06:44:03;12.35;;;6.85;;
41293;SDS011;27037;52.010;4.446;2023-02-28T06:46:30;12.90;;;6.50;;
41293;SDS011;27037;52.010;4.446;2023-02-28T06:48:56;9.63;;;6.45;;
41293;SDS011;27037;52.010;4.446;2023-02-28T06:51:22;11.27;;;6.40;;
41293;SDS011;27037;52.010;4.446;2023-02-28T06:53:49;8.35;;;5.28;;
41293;SDS011;27037;52.010;4.446;2023-02-28T06:56:16;7.45;;;5.07;;
41293;SDS011;27037;52.010;4.446;2023-02-28T06:58:45;8.90;;;4.97;;
41293;SDS011;27037;52.010;4.446;2023-02-28T07:01:13;7.43;;;4.70;;
41293;SDS011;27037;52.010;4.446;2023-02-28T07:03:39;9.13;;;4.88;;
41293;SDS011;27037;52.010;4.446;2023-02-28T07:06:05;7.82;;;4.40;;
41293;SDS011;27037;52.010;4.446;2023-02-28T07:08:31;7.63;;;4.38;;
41293;SDS011;27037;52.010;4.446;2023-02-28T07:10:58;7.30;;;4.70;;
41293;SDS011;27037;52.010;4.446;2023-02-28T07:13:24;8.70;;;4.53;;
41293;SDS011;27037;52.010;4.446;2023-02-28T07:16:00;8.38;;;4.30;;
41293;SDS011;27037;52.010;4.446;2023-02-28T07:18:27;6.68;;;4.50;;
41293;SDS011;27037;52.010;4.446;2023-02-28T07:20:53;9.90;;;5.53;;
41293;SDS011;27037;52.010;4.446;2023-02-28T07:23:19;7.47;;;4.60;;
41293;SDS011;27037;52.010;4.446;2023-02-28T07:25:46;8.63;;;5.57;;
41293;SDS011;27037;52.010;4.446;2023-02-28T07:28:12;7.05;;;4.93;;
41293;SDS011;27037;52.010;4.446;2023-02-28T07:30:39;12.20;;;5.85;;
41293;SDS011;27037;52.010;4.446;2023-02-28T07:33:05;7.05;;;5.22;;
41293;SDS011;27037;52.010;4.446;2023-02-28T07:35:30;10.60;;;5.53;;
41293;SDS011;27037;52.010;4.446;2023-02-28T07:37:59;11.00;;;5.57;;
41293;SDS011;27037;52.010;4.446;2023-02-28T07:40:26;9.48;;;5.90;;
41293;SDS011;27037;52.010;4.446;2023-02-28T07:42:52;12.52;;;6.43;;
41293;SDS011;27037;52.010;4.446;2023-02-28T07:45:17;8.45;;;5.35;;
41293;SDS011;27037;52.010;4.446;2023-02-28T07:47:44;9.60;;;6.57;;
41293;SDS011;27037;52.010;4.446;2023-02-28T07:50:11;7.57;;;5.53;;
41293;SDS011;27037;52.010;4.446;2023-02-28T07:52:39;10.40;;;6.13;;
41293;SDS011;27037;52.010;4.446;2023-02-28T07:55:06;9.18;;;6.35;;
41293;SDS011;27037;52.010;4.446;2023-02-28T07:57:32;10.60;;;6.57;;
41293;SDS011;27037;52.010;4.446;2023-02-28T07:59:58;10.48;;;6.65;;
41293;SDS011;27037;52.010;4.446;2023-02-28T08:02:24;12.70;;;6.50;;
41293;SDS011;27037;52.010;4.446;2023-02-28T08:04:50;9.77;;;6.57;;
41293;SDS011;27037;52.010;4.446;2023-02-28T08:07:16;9.88;;;6.45;;
41293;SDS011;27037;52.010;4.446;2023-02-28T08:09:43;11.32;;;6.15;;
41293;SDS011;27037;52.010;4.446;2023-02-28T08:12:09;10.05;;;6.13;;
41293;SDS011;27037;52.010;4.446;2023-02-28T08:14:36;10.00;;;6.40;;
41293;SDS011;27037;52.010;4.446;2023-02-28T08:17:03;10.45;;;6.43;;
41293;SDS011;27037;52.010;4.446;2023-02-28T08:19:29;9.00;;;5.55;;
41293;SDS011;27037;52.010;4.446;2023-02-28T08:21:55;10.43;;;5.85;;
41293;SDS011;27037;52.010;4.446;2023-02-28T08:24:21;10.52;;;5.72;;
41293;SDS011;27037;52.010;4.446;2023-02-28T08:26:47;7.70;;;5.82;;
41293;SDS011;27037;52.010;4.446;2023-02-28T08:29:13;13.10;;;6.32;;
41293;SDS011;27037;52.010;4.446;2023-02-28T08:31:39;8.48;;;6.22;;
41293;SDS011;27037;52.010;4.446;2023-02-28T08:34:06;9.63;;;6.10;;
41293;SDS011;27037;52.010;4.446;2023-02-28T08:36:33;8.00;;;6.05;;
41293;SDS011;27037;52.010;4.446;2023-02-28T08:38:59;8.95;;;5.93;;
41293;SDS011;27037;52.010;4.446;2023-02-28T08:41:26;9.55;;;6.38;;
41293;SDS011;27037;52.010;4.446;2023-02-28T08:43:52;8.60;;;6.13;;
41293;SDS011;27037;52.010;4.446;2023-02-28T08:46:19;11.23;;;6.63;;
41293;SDS011;27037;52.010;4.446;2023-02-28T08:48:45;12.57;;;6.68;;
41293;SDS011;27037;52.010;4.446;2023-02-28T08:51:12;10.43;;;6.63;;
41293;SDS011;27037;52.010;4.446;2023-02-28T08:53:41;8.95;;;6.22;;
41293;SDS011;27037;52.010;4.446;2023-02-28T08:56:08;8.15;;;5.90;;
41293;SDS011;27037;52.010;4.446;2023-02-28T08:58:36;8.70;;;5.95;;
41293;SDS011;27037;52.010;4.446;2023-02-28T09:01:35;9.63;;;6.28;;
41293;SDS011;27037;52.010;4.446;2023-02-28T09:03:54;10.15;;;6.22;;
41293;SDS011;27037;52.010;4.446;2023-02-28T09:06:21;9.23;;;6.20;;
41293;SDS011;27037;52.010;4.446;2023-02-28T09:08:48;8.45;;;5.70;;
41293;SDS011;27037;52.010;4.446;2023-02-28T09:11:14;9.63;;;5.95;;
41293;SDS011;27037;52.010;4.446;2023-02-28T09:13:40;9.48;;;6.20;;
41293;SDS011;27037;52.010;4.446;2023-02-28T09:16:07;9.73;;;6.60;;
41293;SDS011;27037;52.010;4.446;2023-02-28T09:18:35;9.98;;;6.72;;
41293;SDS011;27037;52.010;4.446;2023-02-28T09:21:05;9.57;;;6.20;;
41293;SDS011;27037;52.010;4.446;2023-02-28T09:23:33;9.77;;;5.97;;
41293;SDS011;27037;52.010;4.446;2023-02-28T09:25:58;8.48;;;6.32;;
41293;SDS011;27037;52.010;4.446;2023-02-28T09:28:24;8.93;;;5.90;;
41293;SDS011;27037;52.010;4.446;2023-02-28T09:30:51;9.93;;;6.00;;
41293;SDS011;27037;52.010;4.446;2023-02-28T09:33:18;7.80;;;5.90;;
41293;SDS011;27037;52.010;4.446;2023-02-28T09:35:48;11.02;;;5.95;;
41293;SDS011;27037;52.010;4.446;2023-02-28T09:38:15;9.13;;;5.80;;
41293;SDS011;27037;52.010;4.446;2023-02-28T09:40:51;9.02;;;6.10;;
41293;SDS011;27037;52.010;4.446;2023-02-28T09:43:21;7.75;;;5.30;;
41293;SDS011;27037;52.010;4.446;2023-02-28T09:45:56;8.98;;;5.43;;
41293;SDS011;27037;52.010;4.446;2023-02-28T09:48:34;11.15;;;6.10;;
41293;SDS011;27037;52.010;4.446;2023-02-28T09:51:09;8.93;;;5.80;;
41293;SDS011;27037;52.010;4.446;2023-02-28T09:54:09;9.50;;;6.20;;
41293;SDS011;27037;52.010;4.446;2023-02-28T09:56:44;11.50;;;6.50;;
41293;SDS011;27037;52.010;4.446;2023-02-28T09:59:23;9.05;;;6.25;;
41293;SDS011;27037;52.010;4.446;2023-02-28T10:07:02;11.55;;;6.43;;
41293;SDS011;27037;52.010;4.446;2023-02-28T10:09:43;10.32;;;6.28;;
41293;SDS011;27037;52.010;4.446;2023-02-28T10:12:12;9.18;;;5.95;;
41293;SDS011;27037;52.010;4.446;2023-02-28T10:14:40;14.60;;;5.57;;
41293;SDS011;27037;52.010;4.446;2023-02-28T10:17:15;8.50;;;5.28;;
41293;SDS011;27037;52.010;4.446;2023-02-28T10:22:50;8.38;;;5.13;;
41293;SDS011;27037;52.010;4.446;2023-02-28T10:25:22;7.05;;;4.80;;
41293;SDS011;27037;52.010;4.446;2023-02-28T10:27:54;6.63;;;4.70;;
41293;SDS011;27037;52.010;4.446;2023-02-28T10:30:26;8.07;;;4.80;;
41293;SDS011;27037;52.010;4.446;2023-02-28T10:32:52;8.95;;;5.28;;
41293;SDS011;27037;52.010;4.446;2023-02-28T10:35:19;7.55;;;4.97;;
41293;SDS011;27037;52.010;4.446;2023-02-28T10:37:50;8.00;;;4.57;;
41293;SDS011;27037;52.010;4.446;2023-02-28T10:42:58;6.53;;;4.38;;
41293;SDS011;27037;52.010;4.446;2023-02-28T10:45:54;6.70;;;4.28;;
41293;SDS011;27037;52.010;4.446;2023-02-28T10:51:09;6.32;;;4.10;;
41293;SDS011;27037;52.010;4.446;2023-02-28T11:04:02;5.38;;;3.80;;
41293;SDS011;27037;52.010;4.446;2023-02-28T11:06:29;5.60;;;3.80;;
41293;SDS011;27037;52.010;4.446;2023-02-28T11:11:28;6.97;;;4.10;;
41293;SDS011;27037;52.010;4.446;2023-02-28T11:13:57;6.22;;;3.78;;
41293;SDS011;27037;52.010;4.446;2023-02-28T11:16:31;5.18;;;3.40;;
41293;SDS011;27037;52.010;4.446;2023-02-28T11:18:59;8.25;;;3.85;;
41293;SDS011;27037;52.010;4.446;2023-02-28T11:21:26;7.43;;;4.07;;
41293;SDS011;27037;52.010;4.446;2023-02-28T11:26:46;5.28;;;3.55;;
41293;SDS011;27037;52.010;4.446;2023-02-28T11:29:23;8.18;;;3.38;;
41293;SDS011;27037;52.010;4.446;2023-02-28T11:34:36;4.65;;;3.30;;
41293;SDS011;27037;52.010;4.446;2023-02-28T11:37:03;7.35;;;3.65;;
41293;SDS011;27037;52.010;4.446;2023-02-28T11:39:31;5.82;;;3.67;;
41293;SDS011;27037;52.010;4.446;2023-02-28T11:42:20;5.30;;;3.30;;
41293;SDS011;27037;52.010;4.446;2023-02-28T11:48:24;6.53;;;3.85;;
41293;SDS011;27037;52.010;4.446;2023-02-28T11:51:27;4.68;;;2.95;;
41293;SDS011;27037;52.010;4.446;2023-02-28T11:57:31;5.55;;;2.70;;
41293;SDS011;27037;52.010;4.446;2023-02-28T12:00:19;3.38;;;2.67;;
41293;SDS011;27037;52.010;4.446;2023-02-28T12:13:29;2.78;;;2.38;;
41293;SDS011;27037;52.010;4.446;2023-02-28T12:16:27;5.00;;;2.70;;
41293;SDS011;27037;52.010;4.446;2023-02-28T12:19:29;3.78;;;2.63;;
41293;SDS011;27037;52.010;4.446;2023-02-28T12:24:45;3.03;;;2.70;;
41293;SDS011;27037;52.010;4.446;2023-02-28T12:27:31;2.90;;;2.50;;
41293;SDS011;27037;52.010;4.446;2023-02-28T12:30:08;4.22;;;2.75;;
41293;SDS011;27037;52.010;4.446;2023-02-28T12:32:41;5.38;;;2.80;;
41293;SDS011;27037;52.010;4.446;2023-02-28T12:37:43;3.20;;;2.42;;
41293;SDS011;27037;52.010;4.446;2023-02-28T12:40:21;4.53;;;2.72;;
41293;SDS011;27037;52.010;4.446;2023-02-28T12:45:23;3.70;;;2.70;;
41293;SDS011;27037;52.010;4.446;2023-02-28T12:47:55;3.13;;;2.80;;
41293;SDS011;27037;52.010;4.446;2023-02-28T12:50:26;3.35;;;2.50;;
41293;SDS011;27037;52.010;4.446;2023-02-28T12:52:56;4.50;;;2.83;;
41293;SDS011;27037;52.010;4.446;2023-02-28T12:58:34;5.28;;;2.78;;
41293;SDS011;27037;52.010;4.446;2023-02-28T13:09:25;3.80;;;2.70;;
41293;SDS011;27037;52.010;4.446;2023-02-28T13:11:52;3.28;;;2.50;;
41293;SDS011;27037;52.010;4.446;2023-02-28T13:19:35;4.55;;;2.88;;
41293;SDS011;27037;52.010;4.446;2023-02-28T13:22:04;5.28;;;3.38;;
41293;SDS011;27037;52.010;4.446;2023-02-28T13:25:04;3.50;;;2.70;;
41293;SDS011;27037;52.010;4.446;2023-02-28T13:27:41;3.13;;;2.10;;
41293;SDS011;27037;52.010;4.446;2023-02-28T13:38:40;3.42;;;2.50;;
41293;SDS011;27037;52.010;4.446;2023-02-28T13:44:08;3.80;;;2.75;;
41293;SDS011;27037;52.010;4.446;2023-02-28T13:55:29;3.45;;;2.88;;
41293;SDS011;27037;52.010;4.446;2023-02-28T14:05:32;4.28;;;2.80;;
41293;SDS011;27037;52.010;4.446;2023-02-28T14:08:01;6.22;;;3.10;;
41293;SDS011;27037;52.010;4.446;2023-02-28T14:10:41;4.53;;;2.90;;
41293;SDS011;27037;52.010;4.446;2023-02-28T14:15:57;4.03;;;2.92;;
41293;SDS011;27037;52.010;4.446;2023-02-28T14:18:29;3.97;;;3.03;;
41293;SDS011;27037;52.010;4.446;2023-02-28T14:21:20;3.42;;;3.00;;
41293;SDS011;27037;52.010;4.446;2023-02-28T14:35:03;5.38;;;3.00;;
41293;SDS011;27037;52.010;4.446;2023-02-28T14:37:53;4.43;;;3.30;;
41293;SDS011;27037;52.010;4.446;2023-02-28T14:40:27;6.57;;;3.25;;
41293;SDS011;27037;52.010;4.446;2023-02-28T14:42:58;5.15;;;3.08;;
41293;SDS011;27037;52.010;4.446;2023-02-28T14:45:26;5.40;;;3.50;;
41293;SDS011;27037;52.010;4.446;2023-02-28T14:47:58;3.42;;;3.13;;
41293;SDS011;27037;52.010;4.446;2023-02-28T14:50:32;3.53;;;3.00;;
41293;SDS011;27037;52.010;4.446;2023-02-28T14:53:00;5.30;;;3.20;;
41293;SDS011;27037;52.010;4.446;2023-02-28T14:55:30;5.57;;;2.63;;
41293;SDS011;27037;52.010;4.446;2023-02-28T14:58:01;4.20;;;3.00;;
41293;SDS011;27037;52.010;4.446;2023-02-28T15:00:32;3.25;;;2.55;;
41293;SDS011;27037;52.010;4.446;2023-02-28T15:03:00;3.83;;;2.80;;
41293;SDS011;27037;52.010;4.446;2023-02-28T15:05:42;5.35;;;2.70;;
41293;SDS011;27037;52.010;4.446;2023-02-28T15:08:17;3.50;;;2.60;;
41293;SDS011;27037;52.010;4.446;2023-02-28T15:11:06;6.35;;;2.72;;
41293;SDS011;27037;52.010;4.446;2023-02-28T15:13:44;2.92;;;2.50;;
41293;SDS011;27037;52.010;4.446;2023-02-28T15:16:16;4.72;;;2.58;;
41293;SDS011;27037;52.010;4.446;2023-02-28T15:21:25;3.83;;;2.65;;
41293;SDS011;27037;52.010;4.446;2023-02-28T15:24:04;2.88;;;2.53;;
41293;SDS011;27037;52.010;4.446;2023-02-28T15:26:33;4.43;;;2.70;;
41293;SDS011;27037;52.010;4.446;2023-02-28T15:29:08;3.58;;;2.60;;
41293;SDS011;27037;52.010;4.446;2023-02-28T15:31:46;3.45;;;2.80;;
41293;SDS011;27037;52.010;4.446;2023-02-28T15:34:25;2.95;;;2.42;;
41293;SDS011;27037;52.010;4.446;2023-02-28T15:37:00;3.95;;;2.72;;
41293;SDS011;27037;52.010;4.446;2023-02-28T15:39:26;4.30;;;2.95;;
41293;SDS011;27037;52.010;4.446;2023-02-28T15:42:16;3.75;;;2.70;;
41293;SDS011;27037;52.010;4.446;2023-02-28T15:44:44;3.38;;;2.33;;
41293;SDS011;27037;52.010;4.446;2023-02-28T15:47:17;4.05;;;2.83;;
41293;SDS011;27037;52.010;4.446;2023-02-28T15:49:47;4.80;;;2.70;;
41293;SDS011;27037;52.010;4.446;2023-02-28T15:52:17;4.00;;;2.65;;
41293;SDS011;27037;52.010;4.446;2023-02-28T15:54:47;4.78;;;2.78;;
41293;SDS011;27037;52.010;4.446;2023-02-28T15:57:14;5.70;;;2.97;;
41293;SDS011;27037;52.010;4.446;2023-02-28T16:00:00;4.03;;;2.80;;
41293;SDS011;27037;52.010;4.446;2023-02-28T16:02:32;4.82;;;3.15;;
41293;SDS011;27037;52.010;4.446;2023-02-28T16:07:31;8.10;;;3.80;;
41293;SDS011;27037;52.010;4.446;2023-02-28T16:09:58;5.07;;;3.85;;
41293;SDS011;27037;52.010;4.446;2023-02-28T16:12:25;5.28;;;3.20;;
41293;SDS011;27037;52.010;4.446;2023-02-28T16:14:57;5.43;;;3.00;;
41293;SDS011;27037;52.010;4.446;2023-02-28T16:17:27;3.58;;;3.03;;
41293;SDS011;27037;52.010;4.446;2023-02-28T16:19:56;6.05;;;3.53;;
41293;SDS011;27037;52.010;4.446;2023-02-28T16:22:23;4.25;;;2.80;;
41293;SDS011;27037;52.010;4.446;2023-02-28T16:24:49;6.60;;;3.85;;
41293;SDS011;27037;52.010;4.446;2023-02-28T16:27:19;4.68;;;3.33;;
41293;SDS011;27037;52.010;4.446;2023-02-28T16:29:50;6.13;;;3.50;;
41293;SDS011;27037;52.010;4.446;2023-02-28T16:32:15;6.95;;;3.35;;
41293;SDS011;27037;52.010;4.446;2023-02-28T16:34:42;6.72;;;3.30;;
41293;SDS011;27037;52.010;4.446;2023-02-28T16:37:12;5.60;;;3.00;;
41293;SDS011;27037;52.010;4.446;2023-02-28T16:39:40;5.60;;;3.47;;
41293;SDS011;27037;52.010;4.446;2023-02-28T16:42:06;5.95;;;3.90;;
41293;SDS011;27037;52.010;4.446;2023-02-28T16:44:35;5.93;;;3.45;;
41293;SDS011;27037;52.010;4.446;2023-02-28T16:47:01;5.55;;;3.20;;
41293;SDS011;27037;52.010;4.446;2023-02-28T16:49:28;6.95;;;3.33;;
41293;SDS011;27037;52.010;4.446;2023-02-28T16:51:54;7.78;;;4.10;;
41293;SDS011;27037;52.010;4.446;2023-02-28T16:54:20;7.35;;;3.70;;
41293;SDS011;27037;52.010;4.446;2023-02-28T16:56:47;3.90;;;3.05;;
41293;SDS011;27037;52.010;4.446;2023-02-28T16:59:13;5.18;;;3.22;;
41293;SDS011;27037;52.010;4.446;2023-02-28T17:01:43;5.20;;;3.58;;
41293;SDS011;27037;52.010;4.446;2023-02-28T17:04:09;7.85;;;3.78;;
41293;SDS011;27037;52.010;4.446;2023-02-28T17:06:36;6.47;;;3.88;;
41293;SDS011;27037;52.010;4.446;2023-02-28T17:09:02;5.95;;;4.07;;
41293;SDS011;27037;52.010;4.446;2023-02-28T17:11:27;6.75;;;4.60;;
41293;SDS011;27037;52.010;4.446;2023-02-28T17:13:53;6.60;;;4.30;;
41293;SDS011;27037;52.010;4.446;2023-02-28T17:16:29;7.13;;;4.38;;
41293;SDS011;27037;52.010;4.446;2023-02-28T17:18:58;7.60;;;4.07;;
41293;SDS011;27037;52.010;4.446;2023-02-28T17:21:25;6.70;;;4.38;;
41293;SDS011;27037;52.010;4.446;2023-02-28T17:23:51;6.65;;;4.55;;
41293;SDS011;27037;52.010;4.446;2023-02-28T17:26:17;5.43;;;4.38;;
41293;SDS011;27037;52.010;4.446;2023-02-28T17:28:49;7.63;;;4.53;;
41293;SDS011;27037;52.010;4.446;2023-02-28T17:31:16;7.20;;;4.72;;
41293;SDS011;27037;52.010;4.446;2023-02-28T17:33:42;7.55;;;4.68;;